sensor_id;sensor_type;location;lat;lon;timestamp;P1;durP1;ratioP1;P2;durP2;ratioP2
17773;SDS011;9011;33.236;-97.118;2023-07-31T00:00:35;8.70;;;3.60;;
17773;SDS011;9011;33.236;-97.118;2023-07-31T00:03:04;9.23;;;3.92;;
17773;SDS011;9011;33.236;-97.118;2023-07-31T00:05:33;9.57;;;3.35;;
17773;SDS011;9011;33.236;-97.118;2023-07-31T00:08:01;8.82;;;3.55;;
17773;SDS011;9011;33.236;-97.118;2023-07-31T00:10:32;6.97;;;3.72;;
17773;SDS011;9011;33.236;-97.118;2023-07-31T00:13:01;8.73;;;3.85;;
17773;SDS011;9011;33.236;-97.118;2023-07-31T00:15:29;9.10;;;3.83;;
17773;SDS011;9011;33.236;-97.118;2023-07-31T00:17:58;9.88;;;3.90;;
17773;SDS011;9011;33.236;-97.118;2023-07-31T00:20:27;7.63;;;3.53;;
17773;SDS011;9011;33.236;-97.118;2023-07-31T00:22:55;8.57;;;3.38;;
17773;SDS011;9011;33.236;-97.118;2023-07-31T00:25:24;6.88;;;3.40;;
17773;SDS011;9011;33.236;-97.118;2023-07-31T00:27:54;4.82;;;3.25;;
17773;SDS011;9011;33.236;-97.118;2023-07-31T00:30:22;8.50;;;3.55;;
17773;SDS011;9011;33.236;-97.118;2023-07-31T00:32:53;9.45;;;3.58;;
17773;SDS011;9011;33.236;-97.118;2023-07-31T00:35:21;8.55;;;3.17;;
17773;SDS011;9011;33.236;-97.118;2023-07-31T00:37:50;8.30;;;3.10;;
17773;SDS011;9011;33.236;-97.118;2023-07-31T00:40:18;7.07;;;3.33;;
17773;SDS011;9011;33.236;-97.118;2023-07-31T00:42:47;8.55;;;3.60;;
17773;SDS011;9011;33.236;-97.118;2023-07-31T00:45:17;7.50;;;3.03;;
17773;SDS011;9011;33.236;-97.118;2023-07-31T00:47:46;7.20;;;3.50;;
17773;SDS011;9011;33.236;-97.118;2023-07-31T00:50:14;4.13;;;2.75;;
17773;SDS011;9011;33.236;-97.118;2023-07-31T00:52:43;8.20;;;3.78;;
17773;SDS011;9011;33.236;-97.118;2023-07-31T00:55:11;7.40;;;2.95;;
17773;SDS011;9011;33.236;-97.118;2023-07-31T00:57:40;7.53;;;3.63;;
17773;SDS011;9011;33.236;-97.118;2023-07-31T01:00:10;7.93;;;3.35;;
17773;SDS011;9011;33.236;-97.118;2023-07-31T01:02:40;6.80;;;3.10;;
17773;SDS011;9011;33.236;-97.118;2023-07-31T01:05:09;9.45;;;3.60;;
17773;SDS011;9011;33.236;-97.118;2023-07-31T01:07:39;5.85;;;3.33;;
17773;SDS011;9011;33.236;-97.118;2023-07-31T01:10:15;8.50;;;3.40;;
17773;SDS011;9011;33.236;-97.118;2023-07-31T01:12:48;7.20;;;3.25;;
17773;SDS011;9011;33.236;-97.118;2023-07-31T01:15:17;8.02;;;3.40;;
17773;SDS011;9011;33.236;-97.118;2023-07-31T01:17:47;10.18;;;3.60;;
17773;SDS011;9011;33.236;-97.118;2023-07-31T01:20:17;8.80;;;3.35;;
17773;SDS011;9011;33.236;-97.118;2023-07-31T01:25:59;6.55;;;2.97;;
17773;SDS011;9011;33.236;-97.118;2023-07-31T01:28:38;6.88;;;3.50;;
17773;SDS011;9011;33.236;-97.118;2023-07-31T01:31:15;6.68;;;3.03;;
17773;SDS011;9011;33.236;-97.118;2023-07-31T01:33:47;6.40;;;3.03;;
17773;SDS011;9011;33.236;-97.118;2023-07-31T01:36:17;6.88;;;3.63;;
17773;SDS011;9011;33.236;-97.118;2023-07-31T01:38:46;9.13;;;3.47;;
17773;SDS011;9011;33.236;-97.118;2023-07-31T01:41:18;6.63;;;3.08;;
17773;SDS011;9011;33.236;-97.118;2023-07-31T01:43:46;9.98;;;3.47;;
17773;SDS011;9011;33.236;-97.118;2023-07-31T01:46:15;7.07;;;3.08;;
17773;SDS011;9011;33.236;-97.118;2023-07-31T01:48:43;6.07;;;3.00;;
17773;SDS011;9011;33.236;-97.118;2023-07-31T01:51:11;10.23;;;3.10;;
17773;SDS011;9011;33.236;-97.118;2023-07-31T01:53:40;8.10;;;3.10;;
17773;SDS011;9011;33.236;-97.118;2023-07-31T01:56:09;12.77;;;4.03;;
17773;SDS011;9011;33.236;-97.118;2023-07-31T01:58:39;8.90;;;3.63;;
17773;SDS011;9011;33.236;-97.118;2023-07-31T02:01:07;5.70;;;3.17;;
17773;SDS011;9011;33.236;-97.118;2023-07-31T02:03:36;9.75;;;3.60;;
17773;SDS011;9011;33.236;-97.118;2023-07-31T02:06:04;10.65;;;3.65;;
17773;SDS011;9011;33.236;-97.118;2023-07-31T02:08:33;7.63;;;3.13;;
17773;SDS011;9011;33.236;-97.118;2023-07-31T02:11:01;7.03;;;3.00;;
17773;SDS011;9011;33.236;-97.118;2023-07-31T02:13:30;7.15;;;2.88;;
17773;SDS011;9011;33.236;-97.118;2023-07-31T02:16:00;7.70;;;3.10;;
17773;SDS011;9011;33.236;-97.118;2023-07-31T02:18:28;5.30;;;2.35;;
17773;SDS011;9011;33.236;-97.118;2023-07-31T02:20:57;8.82;;;3.72;;
17773;SDS011;9011;33.236;-97.118;2023-07-31T02:23:25;5.85;;;2.75;;
17773;SDS011;9011;33.236;-97.118;2023-07-31T02:25:54;8.68;;;3.40;;
17773;SDS011;9011;33.236;-97.118;2023-07-31T02:28:22;9.82;;;3.08;;
17773;SDS011;9011;33.236;-97.118;2023-07-31T02:30:50;6.40;;;2.95;;
17773;SDS011;9011;33.236;-97.118;2023-07-31T02:33:20;6.47;;;3.17;;
17773;SDS011;9011;33.236;-97.118;2023-07-31T02:35:49;7.05;;;3.30;;
17773;SDS011;9011;33.236;-97.118;2023-07-31T02:38:18;10.65;;;3.45;;
17773;SDS011;9011;33.236;-97.118;2023-07-31T02:40:46;7.28;;;3.13;;
17773;SDS011;9011;33.236;-97.118;2023-07-31T02:43:15;7.80;;;2.83;;
17773;SDS011;9011;33.236;-97.118;2023-07-31T02:45:43;8.95;;;3.30;;
17773;SDS011;9011;33.236;-97.118;2023-07-31T02:48:11;6.15;;;3.00;;
17773;SDS011;9011;33.236;-97.118;2023-07-31T02:50:41;5.90;;;2.80;;
17773;SDS011;9011;33.236;-97.118;2023-07-31T02:53:10;12.60;;;4.18;;
17773;SDS011;9011;33.236;-97.118;2023-07-31T02:55:38;7.47;;;3.65;;
17773;SDS011;9011;33.236;-97.118;2023-07-31T02:58:07;7.30;;;3.13;;
17773;SDS011;9011;33.236;-97.118;2023-07-31T03:00:35;7.82;;;3.50;;
17773;SDS011;9011;33.236;-97.118;2023-07-31T03:03:08;7.88;;;3.22;;
17773;SDS011;9011;33.236;-97.118;2023-07-31T03:05:37;8.90;;;3.25;;
17773;SDS011;9011;33.236;-97.118;2023-07-31T03:08:07;6.25;;;2.80;;
17773;SDS011;9011;33.236;-97.118;2023-07-31T03:10:35;7.28;;;3.17;;
17773;SDS011;9011;33.236;-97.118;2023-07-31T03:13:03;6.75;;;3.22;;
17773;SDS011;9011;33.236;-97.118;2023-07-31T03:15:32;8.85;;;3.13;;
17773;SDS011;9011;33.236;-97.118;2023-07-31T03:18:00;7.47;;;3.25;;
17773;SDS011;9011;33.236;-97.118;2023-07-31T03:20:29;7.97;;;3.33;;
17773;SDS011;9011;33.236;-97.118;2023-07-31T03:22:57;10.40;;;3.28;;
17773;SDS011;9011;33.236;-97.118;2023-07-31T03:25:27;6.40;;;3.03;;
17773;SDS011;9011;33.236;-97.118;2023-07-31T03:27:55;8.55;;;3.53;;
17773;SDS011;9011;33.236;-97.118;2023-07-31T03:30:24;7.40;;;3.10;;
17773;SDS011;9011;33.236;-97.118;2023-07-31T03:32:52;6.63;;;3.00;;
17773;SDS011;9011;33.236;-97.118;2023-07-31T03:35:20;8.43;;;3.88;;
17773;SDS011;9011;33.236;-97.118;2023-07-31T03:37:49;14.35;;;3.85;;
17773;SDS011;9011;33.236;-97.118;2023-07-31T03:40:17;9.23;;;3.53;;
17773;SDS011;9011;33.236;-97.118;2023-07-31T03:42:47;9.57;;;3.70;;
17773;SDS011;9011;33.236;-97.118;2023-07-31T03:45:16;9.40;;;3.33;;
17773;SDS011;9011;33.236;-97.118;2023-07-31T03:47:44;7.78;;;3.55;;
17773;SDS011;9011;33.236;-97.118;2023-07-31T03:50:13;8.45;;;3.42;;
17773;SDS011;9011;33.236;-97.118;2023-07-31T03:52:43;6.90;;;3.67;;
17773;SDS011;9011;33.236;-97.118;2023-07-31T03:55:12;9.50;;;3.70;;
17773;SDS011;9011;33.236;-97.118;2023-07-31T03:57:46;15.07;;;4.88;;
17773;SDS011;9011;33.236;-97.118;2023-07-31T04:00:15;9.10;;;3.25;;
17773;SDS011;9011;33.236;-97.118;2023-07-31T04:02:44;9.07;;;3.45;;
17773;SDS011;9011;33.236;-97.118;2023-07-31T04:05:13;9.70;;;3.45;;
17773;SDS011;9011;33.236;-97.118;2023-07-31T04:07:41;8.27;;;3.40;;
17773;SDS011;9011;33.236;-97.118;2023-07-31T04:10:13;8.07;;;3.33;;
17773;SDS011;9011;33.236;-97.118;2023-07-31T04:12:44;9.73;;;4.25;;
17773;SDS011;9011;33.236;-97.118;2023-07-31T04:15:14;8.55;;;3.42;;
17773;SDS011;9011;33.236;-97.118;2023-07-31T04:17:42;6.82;;;3.70;;
17773;SDS011;9011;33.236;-97.118;2023-07-31T04:20:11;11.75;;;3.95;;
17773;SDS011;9011;33.236;-97.118;2023-07-31T04:22:39;10.20;;;3.53;;
17773;SDS011;9011;33.236;-97.118;2023-07-31T04:25:07;9.90;;;3.67;;
17773;SDS011;9011;33.236;-97.118;2023-07-31T04:27:36;13.63;;;4.20;;
17773;SDS011;9011;33.236;-97.118;2023-07-31T04:30:05;6.00;;;3.17;;
17773;SDS011;9011;33.236;-97.118;2023-07-31T04:32:36;9.93;;;4.03;;
17773;SDS011;9011;33.236;-97.118;2023-07-31T04:35:05;9.93;;;3.88;;
17773;SDS011;9011;33.236;-97.118;2023-07-31T04:37:34;6.63;;;3.60;;
17773;SDS011;9011;33.236;-97.118;2023-07-31T04:40:04;10.50;;;5.03;;
17773;SDS011;9011;33.236;-97.118;2023-07-31T04:42:33;7.05;;;3.70;;
17773;SDS011;9011;33.236;-97.118;2023-07-31T04:45:02;9.38;;;3.90;;
17773;SDS011;9011;33.236;-97.118;2023-07-31T04:47:31;8.50;;;3.92;;
17773;SDS011;9011;33.236;-97.118;2023-07-31T04:50:01;11.65;;;4.03;;
17773;SDS011;9011;33.236;-97.118;2023-07-31T04:52:29;6.93;;;3.67;;
17773;SDS011;9011;33.236;-97.118;2023-07-31T04:54:57;6.85;;;3.60;;
17773;SDS011;9011;33.236;-97.118;2023-07-31T04:57:26;8.57;;;3.97;;
17773;SDS011;9011;33.236;-97.118;2023-07-31T04:59:54;9.60;;;4.40;;
17773;SDS011;9011;33.236;-97.118;2023-07-31T05:02:23;7.07;;;4.18;;
17773;SDS011;9011;33.236;-97.118;2023-07-31T05:04:52;10.70;;;3.55;;
17773;SDS011;9011;33.236;-97.118;2023-07-31T05:07:22;7.05;;;3.60;;
17773;SDS011;9011;33.236;-97.118;2023-07-31T05:09:50;7.88;;;3.88;;
17773;SDS011;9011;33.236;-97.118;2023-07-31T05:12:18;6.93;;;3.90;;
17773;SDS011;9011;33.236;-97.118;2023-07-31T05:14:47;7.43;;;3.97;;
17773;SDS011;9011;33.236;-97.118;2023-07-31T05:17:15;8.65;;;3.72;;
17773;SDS011;9011;33.236;-97.118;2023-07-31T05:19:43;9.32;;;3.70;;
17773;SDS011;9011;33.236;-97.118;2023-07-31T05:22:12;9.23;;;4.38;;
17773;SDS011;9011;33.236;-97.118;2023-07-31T05:24:41;8.65;;;3.70;;
17773;SDS011;9011;33.236;-97.118;2023-07-31T05:27:10;7.88;;;4.00;;
17773;SDS011;9011;33.236;-97.118;2023-07-31T05:29:40;7.13;;;3.45;;
17773;SDS011;9011;33.236;-97.118;2023-07-31T05:32:09;8.32;;;3.90;;
17773;SDS011;9011;33.236;-97.118;2023-07-31T05:34:37;9.27;;;4.22;;
17773;SDS011;9011;33.236;-97.118;2023-07-31T05:37:05;8.65;;;3.83;;
17773;SDS011;9011;33.236;-97.118;2023-07-31T05:39:34;10.63;;;3.70;;
17773;SDS011;9011;33.236;-97.118;2023-07-31T05:42:04;7.80;;;4.05;;
17773;SDS011;9011;33.236;-97.118;2023-07-31T05:44:33;8.00;;;4.20;;
17773;SDS011;9011;33.236;-97.118;2023-07-31T05:47:01;7.55;;;4.00;;
17773;SDS011;9011;33.236;-97.118;2023-07-31T05:49:30;9.45;;;4.32;;
17773;SDS011;9011;33.236;-97.118;2023-07-31T05:51:58;9.70;;;4.35;;
17773;SDS011;9011;33.236;-97.118;2023-07-31T05:54:26;11.88;;;4.40;;
17773;SDS011;9011;33.236;-97.118;2023-07-31T05:56:55;8.48;;;4.65;;
17773;SDS011;9011;33.236;-97.118;2023-07-31T05:59:25;8.82;;;4.28;;
17773;SDS011;9011;33.236;-97.118;2023-07-31T06:01:53;8.98;;;4.38;;
17773;SDS011;9011;33.236;-97.118;2023-07-31T06:04:21;9.63;;;4.45;;
17773;SDS011;9011;33.236;-97.118;2023-07-31T06:06:51;7.75;;;4.35;;
17773;SDS011;9011;33.236;-97.118;2023-07-31T06:09:19;12.45;;;4.60;;
17773;SDS011;9011;33.236;-97.118;2023-07-31T06:11:47;11.48;;;4.38;;
17773;SDS011;9011;33.236;-97.118;2023-07-31T06:14:16;8.10;;;4.13;;
17773;SDS011;9011;33.236;-97.118;2023-07-31T06:16:46;9.27;;;4.25;;
17773;SDS011;9011;33.236;-97.118;2023-07-31T06:19:14;8.10;;;4.65;;
17773;SDS011;9011;33.236;-97.118;2023-07-31T06:21:42;7.88;;;4.40;;
17773;SDS011;9011;33.236;-97.118;2023-07-31T06:24:11;8.38;;;4.15;;
17773;SDS011;9011;33.236;-97.118;2023-07-31T06:26:44;8.82;;;3.90;;
17773;SDS011;9011;33.236;-97.118;2023-07-31T06:29:12;10.32;;;4.45;;
17773;SDS011;9011;33.236;-97.118;2023-07-31T06:31:41;8.38;;;4.32;;
17773;SDS011;9011;33.236;-97.118;2023-07-31T06:34:11;11.80;;;4.38;;
17773;SDS011;9011;33.236;-97.118;2023-07-31T06:36:39;7.35;;;4.28;;
17773;SDS011;9011;33.236;-97.118;2023-07-31T06:39:07;9.43;;;4.90;;
17773;SDS011;9011;33.236;-97.118;2023-07-31T06:41:36;9.88;;;4.65;;
17773;SDS011;9011;33.236;-97.118;2023-07-31T06:44:04;8.13;;;4.50;;
17773;SDS011;9011;33.236;-97.118;2023-07-31T06:46:33;8.00;;;4.40;;
17773;SDS011;9011;33.236;-97.118;2023-07-31T06:49:01;8.00;;;4.60;;
17773;SDS011;9011;33.236;-97.118;2023-07-31T06:51:31;6.85;;;4.63;;
17773;SDS011;9011;33.236;-97.118;2023-07-31T06:54:01;8.70;;;4.13;;
17773;SDS011;9011;33.236;-97.118;2023-07-31T06:56:29;11.90;;;5.50;;
17773;SDS011;9011;33.236;-97.118;2023-07-31T06:58:58;9.30;;;4.43;;
17773;SDS011;9011;33.236;-97.118;2023-07-31T07:01:26;12.00;;;5.22;;
17773;SDS011;9011;33.236;-97.118;2023-07-31T07:03:54;10.80;;;4.50;;
17773;SDS011;9011;33.236;-97.118;2023-07-31T07:06:23;10.73;;;4.78;;
17773;SDS011;9011;33.236;-97.118;2023-07-31T07:08:53;9.52;;;4.47;;
17773;SDS011;9011;33.236;-97.118;2023-07-31T07:11:21;9.57;;;4.75;;
17773;SDS011;9011;33.236;-97.118;2023-07-31T07:13:49;13.68;;;5.30;;
17773;SDS011;9011;33.236;-97.118;2023-07-31T07:16:18;8.20;;;4.72;;
17773;SDS011;9011;33.236;-97.118;2023-07-31T07:18:46;9.75;;;4.22;;
17773;SDS011;9011;33.236;-97.118;2023-07-31T07:21:14;12.35;;;5.28;;
17773;SDS011;9011;33.236;-97.118;2023-07-31T07:23:43;10.02;;;4.53;;
17773;SDS011;9011;33.236;-97.118;2023-07-31T07:26:13;11.43;;;5.22;;
17773;SDS011;9011;33.236;-97.118;2023-07-31T07:28:41;15.05;;;5.28;;
17773;SDS011;9011;33.236;-97.118;2023-07-31T07:31:10;10.30;;;5.03;;
17773;SDS011;9011;33.236;-97.118;2023-07-31T07:33:38;11.43;;;5.65;;
17773;SDS011;9011;33.236;-97.118;2023-07-31T07:36:08;10.30;;;4.30;;
17773;SDS011;9011;33.236;-97.118;2023-07-31T07:38:38;9.30;;;5.00;;
17773;SDS011;9011;33.236;-97.118;2023-07-31T07:41:07;7.90;;;4.35;;
17773;SDS011;9011;33.236;-97.118;2023-07-31T07:43:37;11.68;;;4.57;;
17773;SDS011;9011;33.236;-97.118;2023-07-31T07:46:05;10.88;;;4.35;;
17773;SDS011;9011;33.236;-97.118;2023-07-31T07:48:33;8.55;;;4.93;;
17773;SDS011;9011;33.236;-97.118;2023-07-31T07:51:02;9.55;;;4.78;;
17773;SDS011;9011;33.236;-97.118;2023-07-31T07:53:30;10.85;;;4.93;;
17773;SDS011;9011;33.236;-97.118;2023-07-31T07:55:59;7.45;;;4.60;;
17773;SDS011;9011;33.236;-97.118;2023-07-31T07:58:27;9.98;;;4.38;;
17773;SDS011;9011;33.236;-97.118;2023-07-31T08:00:57;10.02;;;5.10;;
17773;SDS011;9011;33.236;-97.118;2023-07-31T08:03:26;14.80;;;5.30;;
17773;SDS011;9011;33.236;-97.118;2023-07-31T08:05:57;7.72;;;4.35;;
17773;SDS011;9011;33.236;-97.118;2023-07-31T08:08:26;8.32;;;4.35;;
17773;SDS011;9011;33.236;-97.118;2023-07-31T08:10:54;10.07;;;3.97;;
17773;SDS011;9011;33.236;-97.118;2023-07-31T08:13:25;8.25;;;5.10;;
17773;SDS011;9011;33.236;-97.118;2023-07-31T08:15:53;8.88;;;4.70;;
17773;SDS011;9011;33.236;-97.118;2023-07-31T08:18:24;9.75;;;4.72;;
17773;SDS011;9011;33.236;-97.118;2023-07-31T08:20:52;13.13;;;4.88;;
17773;SDS011;9011;33.236;-97.118;2023-07-31T08:23:21;11.38;;;4.88;;
17773;SDS011;9011;33.236;-97.118;2023-07-31T08:25:49;8.63;;;4.75;;
17773;SDS011;9011;33.236;-97.118;2023-07-31T08:28:18;8.18;;;4.93;;
17773;SDS011;9011;33.236;-97.118;2023-07-31T08:30:46;8.95;;;4.90;;
17773;SDS011;9011;33.236;-97.118;2023-07-31T08:33:15;11.25;;;5.07;;
17773;SDS011;9011;33.236;-97.118;2023-07-31T08:35:46;9.63;;;4.68;;
17773;SDS011;9011;33.236;-97.118;2023-07-31T08:38:14;8.65;;;4.82;;
17773;SDS011;9011;33.236;-97.118;2023-07-31T08:40:42;8.77;;;4.95;;
17773;SDS011;9011;33.236;-97.118;2023-07-31T08:43:11;11.43;;;5.10;;
17773;SDS011;9011;33.236;-97.118;2023-07-31T08:45:41;10.25;;;4.60;;
17773;SDS011;9011;33.236;-97.118;2023-07-31T08:48:10;10.95;;;4.63;;
17773;SDS011;9011;33.236;-97.118;2023-07-31T08:50:41;15.02;;;5.55;;
17773;SDS011;9011;33.236;-97.118;2023-07-31T08:53:11;9.18;;;4.25;;
17773;SDS011;9011;33.236;-97.118;2023-07-31T08:55:40;8.15;;;5.38;;
17773;SDS011;9011;33.236;-97.118;2023-07-31T08:58:11;14.27;;;5.70;;
17773;SDS011;9011;33.236;-97.118;2023-07-31T09:00:41;9.25;;;4.82;;
17773;SDS011;9011;33.236;-97.118;2023-07-31T09:03:13;13.00;;;5.38;;
17773;SDS011;9011;33.236;-97.118;2023-07-31T09:05:42;13.80;;;5.50;;
17773;SDS011;9011;33.236;-97.118;2023-07-31T09:08:13;8.77;;;4.47;;
17773;SDS011;9011;33.236;-97.118;2023-07-31T09:10:45;11.48;;;5.43;;
17773;SDS011;9011;33.236;-97.118;2023-07-31T09:13:15;11.70;;;5.25;;
17773;SDS011;9011;33.236;-97.118;2023-07-31T09:15:44;13.32;;;5.15;;
17773;SDS011;9011;33.236;-97.118;2023-07-31T09:18:13;10.85;;;4.55;;
17773;SDS011;9011;33.236;-97.118;2023-07-31T09:20:45;8.70;;;5.45;;
17773;SDS011;9011;33.236;-97.118;2023-07-31T09:23:29;11.52;;;5.18;;
17773;SDS011;9011;33.236;-97.118;2023-07-31T09:26:08;9.35;;;5.18;;
17773;SDS011;9011;33.236;-97.118;2023-07-31T09:28:37;10.32;;;5.00;;
17773;SDS011;9011;33.236;-97.118;2023-07-31T09:31:05;8.98;;;4.60;;
17773;SDS011;9011;33.236;-97.118;2023-07-31T09:33:33;10.18;;;5.18;;
17773;SDS011;9011;33.236;-97.118;2023-07-31T09:36:22;9.50;;;5.05;;
17773;SDS011;9011;33.236;-97.118;2023-07-31T09:38:52;10.75;;;5.72;;
17773;SDS011;9011;33.236;-97.118;2023-07-31T09:41:21;11.18;;;5.65;;
17773;SDS011;9011;33.236;-97.118;2023-07-31T09:43:53;11.90;;;4.60;;
17773;SDS011;9011;33.236;-97.118;2023-07-31T09:46:21;9.43;;;5.13;;
17773;SDS011;9011;33.236;-97.118;2023-07-31T09:48:55;17.02;;;5.55;;
17773;SDS011;9011;33.236;-97.118;2023-07-31T09:51:36;11.38;;;5.00;;
17773;SDS011;9011;33.236;-97.118;2023-07-31T09:54:12;14.18;;;5.68;;
17773;SDS011;9011;33.236;-97.118;2023-07-31T09:56:42;7.38;;;4.55;;
17773;SDS011;9011;33.236;-97.118;2023-07-31T09:59:12;12.73;;;5.55;;
17773;SDS011;9011;33.236;-97.118;2023-07-31T10:01:43;7.72;;;4.35;;
17773;SDS011;9011;33.236;-97.118;2023-07-31T10:04:13;11.45;;;5.45;;
17773;SDS011;9011;33.236;-97.118;2023-07-31T10:06:46;9.40;;;5.25;;
17773;SDS011;9011;33.236;-97.118;2023-07-31T10:09:19;8.40;;;5.32;;
17773;SDS011;9011;33.236;-97.118;2023-07-31T10:11:55;11.27;;;5.55;;
17773;SDS011;9011;33.236;-97.118;2023-07-31T10:14:26;9.15;;;5.07;;
17773;SDS011;9011;33.236;-97.118;2023-07-31T10:16:56;9.57;;;4.88;;
17773;SDS011;9011;33.236;-97.118;2023-07-31T10:19:26;8.75;;;5.45;;
17773;SDS011;9011;33.236;-97.118;2023-07-31T10:21:56;9.23;;;5.00;;
17773;SDS011;9011;33.236;-97.118;2023-07-31T10:24:26;9.80;;;5.50;;
17773;SDS011;9011;33.236;-97.118;2023-07-31T10:26:55;11.85;;;6.78;;
17773;SDS011;9011;33.236;-97.118;2023-07-31T10:29:27;8.95;;;5.07;;
17773;SDS011;9011;33.236;-97.118;2023-07-31T10:31:57;11.65;;;5.57;;
17773;SDS011;9011;33.236;-97.118;2023-07-31T10:34:26;11.75;;;6.25;;
17773;SDS011;9011;33.236;-97.118;2023-07-31T10:39:56;10.88;;;5.43;;
17773;SDS011;9011;33.236;-97.118;2023-07-31T10:42:29;7.80;;;5.32;;
17773;SDS011;9011;33.236;-97.118;2023-07-31T10:45:00;10.57;;;5.63;;
17773;SDS011;9011;33.236;-97.118;2023-07-31T10:47:30;13.73;;;4.95;;
17773;SDS011;9011;33.236;-97.118;2023-07-31T10:50:15;14.10;;;5.63;;
17773;SDS011;9011;33.236;-97.118;2023-07-31T10:52:49;16.05;;;6.13;;
17773;SDS011;9011;33.236;-97.118;2023-07-31T10:55:29;13.02;;;5.47;;
17773;SDS011;9011;33.236;-97.118;2023-07-31T10:58:05;11.35;;;5.43;;
17773;SDS011;9011;33.236;-97.118;2023-07-31T11:00:34;13.18;;;5.45;;
17773;SDS011;9011;33.236;-97.118;2023-07-31T11:03:05;7.32;;;5.38;;
17773;SDS011;9011;33.236;-97.118;2023-07-31T11:05:49;8.50;;;5.45;;
17773;SDS011;9011;33.236;-97.118;2023-07-31T11:08:20;10.18;;;5.45;;
17773;SDS011;9011;33.236;-97.118;2023-07-31T11:11:06;9.10;;;5.45;;
17773;SDS011;9011;33.236;-97.118;2023-07-31T11:13:39;9.95;;;5.30;;
17773;SDS011;9011;33.236;-97.118;2023-07-31T11:16:09;10.52;;;5.28;;
17773;SDS011;9011;33.236;-97.118;2023-07-31T11:18:39;10.07;;;5.55;;
17773;SDS011;9011;33.236;-97.118;2023-07-31T11:21:08;11.90;;;5.53;;
17773;SDS011;9011;33.236;-97.118;2023-07-31T11:23:41;12.18;;;5.32;;
17773;SDS011;9011;33.236;-97.118;2023-07-31T11:26:15;9.63;;;5.47;;
17773;SDS011;9011;33.236;-97.118;2023-07-31T11:28:46;13.07;;;5.50;;
17773;SDS011;9011;33.236;-97.118;2023-07-31T11:31:15;10.68;;;6.07;;
17773;SDS011;9011;33.236;-97.118;2023-07-31T11:33:45;11.38;;;5.57;;
17773;SDS011;9011;33.236;-97.118;2023-07-31T11:36:14;15.80;;;6.40;;
17773;SDS011;9011;33.236;-97.118;2023-07-31T11:38:43;11.15;;;5.72;;
17773;SDS011;9011;33.236;-97.118;2023-07-31T11:41:13;13.93;;;6.10;;
17773;SDS011;9011;33.236;-97.118;2023-07-31T11:43:43;17.23;;;6.70;;
17773;SDS011;9011;33.236;-97.118;2023-07-31T11:46:13;12.80;;;6.60;;
17773;SDS011;9011;33.236;-97.118;2023-07-31T11:48:43;11.95;;;6.53;;
17773;SDS011;9011;33.236;-97.118;2023-07-31T11:51:12;17.15;;;6.30;;
17773;SDS011;9011;33.236;-97.118;2023-07-31T11:53:42;8.45;;;5.40;;
17773;SDS011;9011;33.236;-97.118;2023-07-31T11:56:13;11.13;;;6.25;;
17773;SDS011;9011;33.236;-97.118;2023-07-31T11:58:45;9.57;;;5.60;;
17773;SDS011;9011;33.236;-97.118;2023-07-31T12:01:15;10.98;;;6.13;;
17773;SDS011;9011;33.236;-97.118;2023-07-31T12:03:46;10.75;;;6.10;;
17773;SDS011;9011;33.236;-97.118;2023-07-31T12:06:16;10.68;;;5.57;;
17773;SDS011;9011;33.236;-97.118;2023-07-31T12:08:46;11.35;;;6.40;;
17773;SDS011;9011;33.236;-97.118;2023-07-31T12:11:15;12.60;;;6.43;;
17773;SDS011;9011;33.236;-97.118;2023-07-31T12:13:45;10.70;;;5.47;;
17773;SDS011;9011;33.236;-97.118;2023-07-31T12:16:13;13.77;;;5.53;;
17773;SDS011;9011;33.236;-97.118;2023-07-31T12:18:41;16.42;;;5.80;;
17773;SDS011;9011;33.236;-97.118;2023-07-31T12:21:10;14.48;;;6.57;;
17773;SDS011;9011;33.236;-97.118;2023-07-31T12:23:38;11.73;;;6.05;;
17773;SDS011;9011;33.236;-97.118;2023-07-31T12:26:08;12.07;;;5.88;;
17773;SDS011;9011;33.236;-97.118;2023-07-31T12:28:41;13.07;;;5.78;;
17773;SDS011;9011;33.236;-97.118;2023-07-31T12:31:12;49.78;;;8.40;;
17773;SDS011;9011;33.236;-97.118;2023-07-31T12:33:43;48.90;;;9.20;;
17773;SDS011;9011;33.236;-97.118;2023-07-31T12:36:12;33.58;;;7.55;;
17773;SDS011;9011;33.236;-97.118;2023-07-31T12:38:41;29.95;;;7.82;;
17773;SDS011;9011;33.236;-97.118;2023-07-31T12:41:10;22.95;;;6.47;;
17773;SDS011;9011;33.236;-97.118;2023-07-31T12:43:39;23.35;;;6.40;;
17773;SDS011;9011;33.236;-97.118;2023-07-31T12:46:08;15.55;;;6.60;;
17773;SDS011;9011;33.236;-97.118;2023-07-31T12:48:38;18.13;;;6.63;;
17773;SDS011;9011;33.236;-97.118;2023-07-31T12:51:07;15.90;;;6.43;;
17773;SDS011;9011;33.236;-97.118;2023-07-31T12:53:35;15.00;;;6.38;;
17773;SDS011;9011;33.236;-97.118;2023-07-31T12:56:04;15.65;;;6.50;;
17773;SDS011;9011;33.236;-97.118;2023-07-31T12:58:32;14.75;;;6.00;;
17773;SDS011;9011;33.236;-97.118;2023-07-31T13:01:01;13.30;;;6.75;;
17773;SDS011;9011;33.236;-97.118;2023-07-31T13:03:29;15.55;;;7.18;;
17773;SDS011;9011;33.236;-97.118;2023-07-31T13:05:59;14.55;;;7.03;;
17773;SDS011;9011;33.236;-97.118;2023-07-31T13:08:28;13.35;;;5.82;;
17773;SDS011;9011;33.236;-97.118;2023-07-31T13:10:56;11.57;;;6.00;;
17773;SDS011;9011;33.236;-97.118;2023-07-31T13:13:25;13.75;;;7.00;;
17773;SDS011;9011;33.236;-97.118;2023-07-31T13:15:54;43.75;;;10.45;;
17773;SDS011;9011;33.236;-97.118;2023-07-31T13:18:23;28.67;;;7.38;;
17773;SDS011;9011;33.236;-97.118;2023-07-31T13:20:51;19.58;;;6.93;;
17773;SDS011;9011;33.236;-97.118;2023-07-31T13:23:21;17.85;;;6.60;;
17773;SDS011;9011;33.236;-97.118;2023-07-31T13:25:50;13.73;;;6.40;;
17773;SDS011;9011;33.236;-97.118;2023-07-31T13:28:18;19.00;;;7.47;;
17773;SDS011;9011;33.236;-97.118;2023-07-31T13:30:47;15.40;;;6.65;;
17773;SDS011;9011;33.236;-97.118;2023-07-31T13:33:15;15.27;;;6.28;;
17773;SDS011;9011;33.236;-97.118;2023-07-31T13:35:43;13.20;;;6.28;;
17773;SDS011;9011;33.236;-97.118;2023-07-31T13:38:12;14.18;;;5.47;;
17773;SDS011;9011;33.236;-97.118;2023-07-31T13:40:42;13.02;;;5.65;;
17773;SDS011;9011;33.236;-97.118;2023-07-31T13:43:10;11.02;;;5.60;;
17773;SDS011;9011;33.236;-97.118;2023-07-31T13:45:39;16.70;;;6.05;;
17773;SDS011;9011;33.236;-97.118;2023-07-31T13:48:07;11.50;;;5.72;;
17773;SDS011;9011;33.236;-97.118;2023-07-31T13:50:36;12.48;;;5.07;;
17773;SDS011;9011;33.236;-97.118;2023-07-31T13:53:05;15.63;;;6.07;;
17773;SDS011;9011;33.236;-97.118;2023-07-31T13:55:32;12.43;;;5.88;;
17773;SDS011;9011;33.236;-97.118;2023-07-31T13:58:02;10.50;;;5.75;;
17773;SDS011;9011;33.236;-97.118;2023-07-31T14:00:31;16.02;;;5.43;;
17773;SDS011;9011;33.236;-97.118;2023-07-31T14:03:00;13.13;;;6.13;;
17773;SDS011;9011;33.236;-97.118;2023-07-31T14:05:29;8.95;;;4.93;;
17773;SDS011;9011;33.236;-97.118;2023-07-31T14:07:57;11.52;;;4.97;;
17773;SDS011;9011;33.236;-97.118;2023-07-31T14:10:26;14.25;;;5.15;;
17773;SDS011;9011;33.236;-97.118;2023-07-31T14:12:54;12.07;;;4.85;;
17773;SDS011;9011;33.236;-97.118;2023-07-31T14:15:24;13.93;;;5.43;;
17773;SDS011;9011;33.236;-97.118;2023-07-31T14:17:54;10.15;;;4.38;;
17773;SDS011;9011;33.236;-97.118;2023-07-31T14:20:22;12.15;;;4.60;;
17773;SDS011;9011;33.236;-97.118;2023-07-31T14:22:51;8.27;;;4.47;;
17773;SDS011;9011;33.236;-97.118;2023-07-31T14:25:19;11.55;;;4.50;;
17773;SDS011;9011;33.236;-97.118;2023-07-31T14:27:48;11.15;;;4.72;;
17773;SDS011;9011;33.236;-97.118;2023-07-31T14:30:17;10.20;;;3.97;;
17773;SDS011;9011;33.236;-97.118;2023-07-31T14:32:47;10.75;;;4.38;;
17773;SDS011;9011;33.236;-97.118;2023-07-31T14:35:15;10.80;;;4.25;;
17773;SDS011;9011;33.236;-97.118;2023-07-31T14:37:44;8.63;;;4.40;;
17773;SDS011;9011;33.236;-97.118;2023-07-31T14:40:13;12.55;;;4.63;;
17773;SDS011;9011;33.236;-97.118;2023-07-31T14:42:41;10.57;;;4.40;;
17773;SDS011;9011;33.236;-97.118;2023-07-31T14:45:10;11.55;;;4.65;;
17773;SDS011;9011;33.236;-97.118;2023-07-31T14:47:39;7.97;;;5.13;;